Lemmer, Netherlands
Current Conditions -  °F | °C
As of 9:55 AM on Wednesday 28 Jan 2015 (Local Time) from EHLW Reporting Station
Haze Haze  
Wind Chill:   Ceiling: 700
Heat Index:   Visibility: 1.9mi
Dew Point:   Wind: 22mph
Humidity: 93%   Direction: 200°SSW
Pressure: 29.62"   Gusts: NA
Location:  52.85°N, 5.71°E
Report Text: EHLW 280855Z AUTO 20019KT 3100 R23/P3000 BR FEW005 BKN007 OVC008 05/04 Q1003 YLO
Loading
Personal Weather Stations






























Interactive Weather Map New forecast layout! Learn more

10-Day Weather Forecast

Advertisements
Track Severe Weather on mobile